createdAt,value
2023-02-23T00:00:51.583Z,9.57
2023-02-23T00:03:19.808Z,9.73
2023-02-23T00:05:47.845Z,11.07
2023-02-23T00:08:15.934Z,14.52
2023-02-23T00:10:44.555Z,12.95
2023-02-23T00:13:13.928Z,13.32
2023-02-23T00:15:41.970Z,12.30
2023-02-23T00:18:10.137Z,10.23
2023-02-23T00:20:44.189Z,8.70
2023-02-23T00:23:12.229Z,8.95
2023-02-23T00:25:42.315Z,8.52
2023-02-23T00:28:10.344Z,8.93
2023-02-23T00:30:40.053Z,9.98
2023-02-23T00:33:08.096Z,9.77
2023-02-23T00:35:36.609Z,10.05
2023-02-23T00:38:04.635Z,9.00
2023-02-23T00:40:32.776Z,8.98
2023-02-23T00:43:01.826Z,9.75
2023-02-23T00:45:30.554Z,12.90
2023-02-23T00:48:00.228Z,13.82
2023-02-23T00:50:29.622Z,16.85
2023-02-23T00:52:59.671Z,20.25
2023-02-23T00:55:27.783Z,18.55
2023-02-23T00:57:55.974Z,15.82
2023-02-23T01:00:26.469Z,16.27
2023-02-23T01:02:54.484Z,15.15
2023-02-23T01:05:24.094Z,15.40
2023-02-23T01:07:52.114Z,15.60
2023-02-23T01:10:20.476Z,13.88
2023-02-23T01:12:49.744Z,13.15
2023-02-23T01:15:18.384Z,14.75
2023-02-23T01:17:46.684Z,13.82
2023-02-23T01:20:19.118Z,13.57
2023-02-23T01:22:50.142Z,13.80
2023-02-23T01:25:19.571Z,14.35
2023-02-23T01:27:47.713Z,14.20
2023-02-23T01:30:16.409Z,13.90
2023-02-23T01:32:44.834Z,14.63
2023-02-23T01:35:13.661Z,15.77
2023-02-23T01:37:42.974Z,15.43
2023-02-23T01:40:16.391Z,15.65
2023-02-23T01:42:46.578Z,15.70
2023-02-23T01:45:24.004Z,15.07
2023-02-23T01:47:54.608Z,15.52
2023-02-23T01:50:23.147Z,15.48
2023-02-23T01:52:52.813Z,14.82
2023-02-23T01:55:24.460Z,14.90
2023-02-23T01:57:55.455Z,15.20
2023-02-23T02:00:26.190Z,15.90
2023-02-23T02:02:54.665Z,15.20
2023-02-23T02:05:23.089Z,16.13
2023-02-23T02:07:58.699Z,16.45
2023-02-23T02:10:45.306Z,15.48
2023-02-23T02:13:18.325Z,15.70
2023-02-23T02:16:17.309Z,16.65
2023-02-23T02:19:03.420Z,16.40
2023-02-23T02:22:14.390Z,17.90
2023-02-23T02:25:20.600Z,15.25
2023-02-23T02:28:22.609Z,15.55
2023-02-23T02:31:21.064Z,15.80
2023-02-23T02:34:18.240Z,15.35
2023-02-23T02:37:28.286Z,16.65
2023-02-23T02:40:16.495Z,17.35
2023-02-23T02:43:09.070Z,16.65
2023-02-23T02:45:47.089Z,17.48
2023-02-23T02:48:22.317Z,17.45
2023-02-23T02:50:55.546Z,18.88
2023-02-23T02:53:29.896Z,17.25
2023-02-23T02:56:01.462Z,16.70
2023-02-23T02:58:30.500Z,16.85
2023-02-23T03:01:24.490Z,15.40
2023-02-23T03:04:10.199Z,15.30
2023-02-23T03:07:03.095Z,15.95
2023-02-23T03:09:55.285Z,14.57
2023-02-23T03:12:47.917Z,16.15
2023-02-23T03:15:48.444Z,14.87
2023-02-23T03:18:44.854Z,16.00
2023-02-23T03:21:34.468Z,15.40
2023-02-23T03:24:26.152Z,16.88
2023-02-23T03:27:17.107Z,17.10
2023-02-23T03:30:06.275Z,17.23
2023-02-23T03:32:55.658Z,17.42
2023-02-23T03:35:45.902Z,18.25
2023-02-23T03:38:35.516Z,18.85
2023-02-23T03:41:22.357Z,18.17
2023-02-23T03:44:12.550Z,18.42
2023-02-23T03:46:58.591Z,18.15
2023-02-23T03:49:47.534Z,17.73
2023-02-23T03:52:36.145Z,16.95
2023-02-23T03:55:24.778Z,17.38
2023-02-23T03:58:14.315Z,18.55
2023-02-23T04:01:05.273Z,18.17
2023-02-23T04:03:53.182Z,19.20
2023-02-23T04:06:40.385Z,20.02
2023-02-23T04:09:26.432Z,18.90
2023-02-23T04:12:17.231Z,18.58
2023-02-23T04:14:50.912Z,18.77
2023-02-23T04:17:25.318Z,17.63
2023-02-23T04:19:54.114Z,18.40
2023-02-23T04:22:22.755Z,18.70
2023-02-23T04:24:51.204Z,18.10
2023-02-23T04:27:19.520Z,17.80
2023-02-23T04:29:47.668Z,18.63
2023-02-23T04:32:18.110Z,17.75
2023-02-23T04:34:47.654Z,18.00
2023-02-23T04:37:16.193Z,18.02
2023-02-23T04:39:48.537Z,17.40
2023-02-23T04:42:16.742Z,18.42
2023-02-23T04:44:45.198Z,18.88
2023-02-23T04:47:13.263Z,18.35
2023-02-23T04:49:41.271Z,17.50
2023-02-23T04:52:10.720Z,17.30
2023-02-23T04:54:39.856Z,17.92
2023-02-23T04:57:08.872Z,18.27
2023-02-23T04:59:37.073Z,18.00
2023-02-23T05:02:05.131Z,17.77
2023-02-23T05:04:34.801Z,18.38
2023-02-23T05:07:03.644Z,18.85
2023-02-23T05:09:33.431Z,18.88
2023-02-23T05:12:01.576Z,19.95
2023-02-23T05:14:29.600Z,19.15
2023-02-23T05:16:57.670Z,20.02
2023-02-23T05:19:25.721Z,19.98
2023-02-23T05:21:53.805Z,19.50
2023-02-23T05:24:21.822Z,19.77
2023-02-23T05:26:51.194Z,20.05
2023-02-23T05:29:19.260Z,20.38
2023-02-23T05:31:48.773Z,20.77
2023-02-23T05:34:17.619Z,21.05
2023-02-23T05:36:45.666Z,22.67
2023-02-23T05:39:13.692Z,23.27
2023-02-23T05:41:41.697Z,22.35
2023-02-23T05:44:11.078Z,23.08
2023-02-23T05:46:39.201Z,23.42
2023-02-23T05:49:07.505Z,23.73
2023-02-23T05:51:35.988Z,22.67
2023-02-23T05:57:46.552Z,23.30
2023-02-23T06:00:16.774Z,25.00
2023-02-23T06:02:44.970Z,27.05
2023-02-23T06:05:14.140Z,26.50
2023-02-23T06:07:42.290Z,26.00
2023-02-23T06:10:11.720Z,26.77
2023-02-23T06:12:39.857Z,26.10
2023-02-23T06:15:08.814Z,25.95
2023-02-23T06:17:38.618Z,27.10
2023-02-23T06:20:07.434Z,27.73
2023-02-23T06:22:35.814Z,26.23
2023-02-23T06:25:05.022Z,26.60
2023-02-23T06:27:33.215Z,25.77
2023-02-23T06:30:01.338Z,26.65
2023-02-23T06:32:29.718Z,26.88
2023-02-23T06:34:59.814Z,26.60
2023-02-23T06:37:27.943Z,26.77
2023-02-23T06:39:56.087Z,27.33
2023-02-23T06:42:24.448Z,25.92
2023-02-23T06:44:52.559Z,26.45
2023-02-23T06:47:20.713Z,25.17
2023-02-23T06:49:48.874Z,27.35
2023-02-23T06:52:18.555Z,24.02
2023-02-23T06:54:48.259Z,24.88
2023-02-23T06:57:16.588Z,26.67
2023-02-23T06:59:44.697Z,27.23
2023-02-23T07:02:13.496Z,25.58
2023-02-23T07:04:41.588Z,27.20
2023-02-23T07:07:09.929Z,25.55
2023-02-23T07:09:40.759Z,26.45
2023-02-23T07:12:08.998Z,27.25
2023-02-23T07:14:37.711Z,27.13
2023-02-23T07:17:06.036Z,26.63
2023-02-23T07:19:34.366Z,27.83
2023-02-23T07:22:02.873Z,26.63
2023-02-23T07:24:31.017Z,27.65
2023-02-23T07:27:00.556Z,27.08
2023-02-23T07:29:29.002Z,27.50
2023-02-23T07:31:57.372Z,27.63
2023-02-23T07:34:25.640Z,29.92
2023-02-23T07:36:53.804Z,29.58
2023-02-23T07:39:22.554Z,28.00
2023-02-23T07:41:51.439Z,28.17
2023-02-23T07:44:21.337Z,28.63
2023-02-23T07:46:50.376Z,26.85
2023-02-23T07:49:18.490Z,28.13
2023-02-23T07:51:47.056Z,29.23
2023-02-23T07:54:15.782Z,27.27
2023-02-23T07:56:44.022Z,30.45
2023-02-23T07:59:12.182Z,28.70
2023-02-23T08:01:41.763Z,27.67
2023-02-23T08:04:10.025Z,29.60
2023-02-23T08:06:38.196Z,28.88
2023-02-23T08:09:06.492Z,28.67
2023-02-23T08:11:34.612Z,30.38
2023-02-23T08:14:02.779Z,28.80
2023-02-23T08:16:32.891Z,30.27
2023-02-23T08:19:02.801Z,31.35
2023-02-23T08:21:31.702Z,30.83
2023-02-23T08:24:00.226Z,31.35
2023-02-23T08:26:28.491Z,31.80
2023-02-23T08:28:58.948Z,32.30
2023-02-23T08:31:27.652Z,38.22
2023-02-23T08:33:55.941Z,37.25
2023-02-23T08:36:25.745Z,45.30
2023-02-23T08:38:54.595Z,44.30
2023-02-23T08:41:22.922Z,49.00
2023-02-23T08:43:51.136Z,51.50
2023-02-23T08:46:20.642Z,50.17
2023-02-23T08:48:48.919Z,54.25
2023-02-23T08:51:17.368Z,55.25
2023-02-23T08:53:47.091Z,56.30
2023-02-23T08:56:15.819Z,55.80
2023-02-23T08:58:44.655Z,56.97
2023-02-23T09:01:19.134Z,58.92
2023-02-23T09:03:48.022Z,60.95
2023-02-23T09:06:19.169Z,57.78
2023-02-23T09:08:48.802Z,56.22
2023-02-23T09:11:17.073Z,56.55
2023-02-23T09:13:45.694Z,56.85
2023-02-23T09:16:13.848Z,56.30
2023-02-23T09:18:42.894Z,58.67
2023-02-23T09:21:21.298Z,58.25
2023-02-23T09:23:52.078Z,56.90
2023-02-23T09:26:21.407Z,58.05
2023-02-23T09:28:49.863Z,56.90
2023-02-23T09:31:20.103Z,56.00
2023-02-23T09:33:48.641Z,55.08
2023-02-23T09:36:18.808Z,59.58
2023-02-23T09:38:48.196Z,57.35
2023-02-23T09:41:50.965Z,56.47
2023-02-23T09:44:26.405Z,53.95
2023-02-23T09:47:05.399Z,54.83
2023-02-23T09:49:35.986Z,57.85
2023-02-23T09:52:05.029Z,56.92
2023-02-23T09:54:35.725Z,62.97
2023-02-23T09:57:08.354Z,65.22
2023-02-23T09:59:36.714Z,64.88
2023-02-23T10:02:09.441Z,64.40
2023-02-23T10:04:40.772Z,66.20
2023-02-23T10:07:15.040Z,67.88
2023-02-23T10:09:59.302Z,65.97
2023-02-23T10:12:34.059Z,69.38
2023-02-23T10:15:11.254Z,64.50
2023-02-23T10:17:45.008Z,67.60
2023-02-23T10:20:21.398Z,65.85
2023-02-23T10:22:50.392Z,65.70
2023-02-23T10:25:21.688Z,63.20
2023-02-23T10:27:51.691Z,63.25
2023-02-23T10:30:22.848Z,59.30
2023-02-23T10:32:55.371Z,60.58
2023-02-23T10:35:25.377Z,56.90
2023-02-23T10:37:54.479Z,55.28
2023-02-23T10:40:25.276Z,54.92
2023-02-23T10:42:55.556Z,53.08
2023-02-23T10:45:25.794Z,53.13
2023-02-23T10:47:56.784Z,51.25
2023-02-23T10:50:27.532Z,52.72
2023-02-23T10:52:59.827Z,52.70
2023-02-23T10:55:29.523Z,47.90
2023-02-23T10:58:10.627Z,51.15
2023-02-23T11:00:40.723Z,50.30
2023-02-23T11:03:20.046Z,50.83
2023-02-23T11:05:50.602Z,47.25
2023-02-23T11:08:30.498Z,47.95
2023-02-23T11:11:08.384Z,48.55
2023-02-23T11:13:43.046Z,47.53
2023-02-23T11:16:13.341Z,49.05
2023-02-23T11:18:43.200Z,45.05
2023-02-23T11:21:13.736Z,46.67
2023-02-23T11:23:42.794Z,46.15
2023-02-23T11:26:33.073Z,45.92
2023-02-23T11:29:11.088Z,46.90
2023-02-23T11:31:40.768Z,42.00
2023-02-23T11:34:09.182Z,42.03
2023-02-23T11:36:38.349Z,42.70
2023-02-23T11:39:10.934Z,40.45
2023-02-23T11:41:39.041Z,41.28
2023-02-23T11:44:08.752Z,42.35
2023-02-23T11:46:39.797Z,43.35
2023-02-23T11:49:09.485Z,42.60
2023-02-23T11:51:39.811Z,41.53
2023-02-23T11:54:10.407Z,43.13
2023-02-23T11:56:38.705Z,44.35
2023-02-23T11:59:11.403Z,43.88
2023-02-23T12:01:44.614Z,41.17
2023-02-23T12:04:25.333Z,38.85
2023-02-23T12:06:53.797Z,37.45
2023-02-23T12:09:25.191Z,39.45
2023-02-23T12:11:56.639Z,41.15
2023-02-23T12:14:33.176Z,39.67
2023-02-23T12:17:05.223Z,39.95
2023-02-23T12:19:35.521Z,40.23
2023-02-23T12:22:06.586Z,42.08
2023-02-23T12:24:44.781Z,39.95
2023-02-23T12:27:15.985Z,43.25
2023-02-23T12:30:00.377Z,42.30
2023-02-23T12:32:30.744Z,38.88
2023-02-23T12:35:02.036Z,40.83
2023-02-23T12:37:38.256Z,40.97
2023-02-23T12:40:16.334Z,40.72
2023-02-23T12:42:50.772Z,39.38
2023-02-23T12:45:24.015Z,38.08
2023-02-23T12:47:57.503Z,39.67
2023-02-23T12:50:29.057Z,37.78
2023-02-23T12:53:01.741Z,37.53
2023-02-23T12:55:38.472Z,36.10
2023-02-23T12:58:14.497Z,37.03
2023-02-23T13:00:50.475Z,35.30
2023-02-23T13:03:55.131Z,36.03
2023-02-23T13:06:30.745Z,34.70
2023-02-23T13:09:06.077Z,36.28
2023-02-23T13:11:48.628Z,37.00
2023-02-23T13:14:20.997Z,40.77
2023-02-23T13:16:53.565Z,38.63
2023-02-23T13:19:25.243Z,41.05
2023-02-23T13:21:56.177Z,40.80
2023-02-23T13:24:27.184Z,45.58
2023-02-23T13:27:00.074Z,48.95
2023-02-23T13:29:34.202Z,49.33
2023-02-23T13:32:05.541Z,50.22
2023-02-23T13:34:36.738Z,51.85
2023-02-23T13:37:07.881Z,51.35
2023-02-23T13:39:47.682Z,51.35
2023-02-23T13:42:38.054Z,51.00
2023-02-23T13:45:25.834Z,51.38
2023-02-23T13:47:58.473Z,49.10
2023-02-23T13:50:31.032Z,51.25
2023-02-23T13:53:04.966Z,50.95
2023-02-23T13:55:49.839Z,53.90
2023-02-23T13:58:20.312Z,54.83
2023-02-23T14:00:56.129Z,56.67
2023-02-23T14:03:28.286Z,61.90
2023-02-23T14:06:00.823Z,66.37
2023-02-23T14:08:34.715Z,68.90
2023-02-23T14:11:03.107Z,61.35
2023-02-23T14:13:33.726Z,62.95
2023-02-23T14:16:14.828Z,59.47
2023-02-23T14:18:58.702Z,59.15
2023-02-23T14:21:33.344Z,55.28
2023-02-23T14:24:12.053Z,56.67
2023-02-23T14:26:42.987Z,56.28
2023-02-23T14:29:32.014Z,55.35
2023-02-23T14:32:06.116Z,57.55
2023-02-23T14:34:51.362Z,58.67
2023-02-23T14:37:25.506Z,52.97
2023-02-23T14:39:55.434Z,51.38
2023-02-23T14:42:26.063Z,51.15
2023-02-23T14:44:55.116Z,54.28
2023-02-23T14:47:24.438Z,49.47
2023-02-23T14:49:58.356Z,52.90
2023-02-23T14:52:28.664Z,49.85
2023-02-23T14:55:08.467Z,43.17
2023-02-23T14:57:38.195Z,42.45
2023-02-23T15:00:14.190Z,41.33
2023-02-23T15:02:55.003Z,40.97
2023-02-23T15:05:26.503Z,42.53
2023-02-23T15:07:56.576Z,42.00
2023-02-23T15:10:29.619Z,42.95
2023-02-23T15:15:27.447Z,43.47
2023-02-23T15:18:00.542Z,46.05
2023-02-23T15:23:03.053Z,40.47
2023-02-23T15:25:37.802Z,36.88
2023-02-23T15:28:21.477Z,35.05
2023-02-23T15:30:50.938Z,34.40
2023-02-23T15:33:23.519Z,33.05
2023-02-23T15:35:55.651Z,36.63
2023-02-23T15:38:42.429Z,33.58
2023-02-23T15:41:19.904Z,32.85
2023-02-23T15:43:48.443Z,33.90
2023-02-23T15:46:24.318Z,33.97
2023-02-23T15:48:53.601Z,34.05
2023-02-23T15:51:29.229Z,35.90
2023-02-23T15:53:57.598Z,35.13
2023-02-23T15:56:28.537Z,32.70
2023-02-23T15:58:58.362Z,30.08
2023-02-23T16:01:29.012Z,30.88
2023-02-23T16:04:00.864Z,31.70
2023-02-23T16:06:34.265Z,29.98
2023-02-23T16:09:09.299Z,30.23
2023-02-23T16:11:38.025Z,28.55
2023-02-23T16:14:06.920Z,31.13
2023-02-23T16:16:36.321Z,28.77
2023-02-23T16:19:05.266Z,30.20
2023-02-23T16:21:35.319Z,28.27
2023-02-23T16:24:09.055Z,28.63
2023-02-23T16:26:42.903Z,28.77
2023-02-23T16:29:15.146Z,28.42
2023-02-23T16:31:45.253Z,25.87
2023-02-23T16:34:26.708Z,24.90
2023-02-23T16:36:59.445Z,26.38
2023-02-23T16:39:30.394Z,26.40
2023-02-23T16:41:59.765Z,26.30
2023-02-23T16:44:41.483Z,26.92
2023-02-23T16:47:36.583Z,26.95
2023-02-23T16:50:20.448Z,28.13
2023-02-23T16:52:53.065Z,28.27
2023-02-23T16:55:26.181Z,27.38
2023-02-23T16:57:56.477Z,26.90
2023-02-23T17:00:26.708Z,26.52
2023-02-23T17:02:55.698Z,27.25
2023-02-23T17:05:25.133Z,26.80
2023-02-23T17:07:54.986Z,25.88
2023-02-23T17:10:28.098Z,25.67
2023-02-23T17:15:27.425Z,25.30
2023-02-23T17:17:56.223Z,27.02
2023-02-23T17:20:25.901Z,27.58
2023-02-23T17:22:56.826Z,25.88
2023-02-23T17:25:26.623Z,26.70
2023-02-23T17:27:54.929Z,25.90
2023-02-23T17:30:23.836Z,26.52
2023-02-23T17:32:53.345Z,29.10
2023-02-23T17:35:22.304Z,28.23
2023-02-23T17:37:50.651Z,29.77
2023-02-23T17:40:26.284Z,28.65
2023-02-23T17:42:55.257Z,27.58
2023-02-23T17:45:23.746Z,27.58
2023-02-23T17:47:52.195Z,28.73
2023-02-23T17:50:21.672Z,28.83
2023-02-23T17:52:50.259Z,29.77
2023-02-23T17:55:20.777Z,28.67
2023-02-23T17:57:48.984Z,29.27
2023-02-23T18:00:19.260Z,27.92
2023-02-23T18:02:48.284Z,28.17
2023-02-23T18:05:16.985Z,27.10
2023-02-23T18:07:48.378Z,29.70
2023-02-23T18:10:17.449Z,27.10
2023-02-23T18:12:47.092Z,27.02
2023-02-23T18:15:15.620Z,26.45
2023-02-23T18:17:44.407Z,25.13
2023-02-23T18:20:15.053Z,24.33
2023-02-23T18:22:43.662Z,26.38
2023-02-23T18:25:21.136Z,26.90
2023-02-23T18:27:54.126Z,28.25
2023-02-23T18:30:23.141Z,26.65
2023-02-23T18:32:52.398Z,27.35
2023-02-23T18:35:20.804Z,26.73
2023-02-23T18:37:49.691Z,28.52
2023-02-23T18:40:23.874Z,27.55
2023-02-23T18:42:57.038Z,29.33
2023-02-23T18:47:53.183Z,27.83
2023-02-23T18:50:22.120Z,28.77
2023-02-23T18:52:51.392Z,29.25
2023-02-23T18:55:22.131Z,30.25
2023-02-23T18:57:52.630Z,30.38
2023-02-23T19:00:24.485Z,29.55
2023-02-23T19:02:53.789Z,29.50
2023-02-23T19:05:22.409Z,28.88
2023-02-23T19:07:50.638Z,21.35
2023-02-23T19:10:19.521Z,21.73
2023-02-23T19:12:47.654Z,20.38
2023-02-23T19:15:18.841Z,19.45
2023-02-23T19:17:48.475Z,20.02
2023-02-23T19:20:17.220Z,20.67
2023-02-23T19:22:45.876Z,20.52
2023-02-23T19:25:15.016Z,22.30
2023-02-23T19:27:43.601Z,22.52
2023-02-23T19:30:14.557Z,20.13
2023-02-23T19:32:43.588Z,22.30
2023-02-23T19:35:15.780Z,20.40
2023-02-23T19:37:48.581Z,21.30
2023-02-23T19:40:19.964Z,21.25
2023-02-23T19:42:49.476Z,19.35
2023-02-23T19:45:18.168Z,20.13
2023-02-23T19:47:46.398Z,21.70
2023-02-23T19:50:19.039Z,22.83
2023-02-23T19:52:48.308Z,25.08
2023-02-23T19:55:16.922Z,25.60
2023-02-23T19:57:45.053Z,27.63
2023-02-23T20:00:14.677Z,26.42
2023-02-23T20:02:47.654Z,29.42
2023-02-23T20:05:17.997Z,28.63
2023-02-23T20:07:46.232Z,27.70
2023-02-23T20:10:16.321Z,30.50
2023-02-23T20:12:44.616Z,28.75
2023-02-23T20:15:15.039Z,32.58
2023-02-23T20:17:43.310Z,30.60
2023-02-23T20:20:16.057Z,32.15
2023-02-23T20:22:46.167Z,29.08
2023-02-23T20:25:17.623Z,28.17
2023-02-23T20:27:47.077Z,28.75
2023-02-23T20:30:15.799Z,30.27
2023-02-23T20:32:44.894Z,24.45
2023-02-23T20:35:16.603Z,26.85
2023-02-23T20:37:46.695Z,25.38
2023-02-23T20:40:18.609Z,25.52
2023-02-23T20:42:49.113Z,26.52
2023-02-23T20:45:20.827Z,25.90
2023-02-23T20:47:53.326Z,26.95
2023-02-23T20:50:23.179Z,26.23
2023-02-23T20:52:53.427Z,27.33
2023-02-23T20:55:26.505Z,27.65
2023-02-23T20:57:59.148Z,29.05
2023-02-23T21:00:29.573Z,28.88
2023-02-23T21:02:58.073Z,29.70
2023-02-23T21:05:28.004Z,31.77
2023-02-23T21:08:02.112Z,30.05
2023-02-23T21:10:32.110Z,32.83
2023-02-23T21:13:00.810Z,30.75
2023-02-23T21:15:30.379Z,32.65
2023-02-23T21:17:59.892Z,31.63
2023-02-23T21:20:28.869Z,31.67
2023-02-23T21:22:57.162Z,31.02
2023-02-23T21:25:28.410Z,30.95
2023-02-23T21:27:57.041Z,32.10
2023-02-23T21:30:28.827Z,29.15
2023-02-23T21:32:59.655Z,33.15
2023-02-23T21:35:28.894Z,33.20
2023-02-23T21:38:37.456Z,31.85
2023-02-23T21:41:07.976Z,29.75
2023-02-23T21:43:36.690Z,31.25
2023-02-23T21:46:08.786Z,32.50
2023-02-23T21:48:37.946Z,34.05
2023-02-23T21:51:08.112Z,32.22
2023-02-23T21:53:37.604Z,34.83
2023-02-23T21:56:12.780Z,31.13
2023-02-23T21:58:44.411Z,33.75
2023-02-23T22:01:13.636Z,32.00
2023-02-23T22:03:45.233Z,35.22
2023-02-23T22:06:13.839Z,32.92
2023-02-23T22:08:45.102Z,30.67
2023-02-23T22:11:20.239Z,32.88
2023-02-23T22:13:59.878Z,33.28
2023-02-23T22:16:31.997Z,32.45
2023-02-23T22:19:04.218Z,33.83
2023-02-23T22:21:34.934Z,33.60
2023-02-23T22:24:05.747Z,33.50
2023-02-23T22:26:38.267Z,35.60
2023-02-23T22:29:10.859Z,39.15
2023-02-23T22:31:39.768Z,39.17
2023-02-23T22:34:08.136Z,40.17
2023-02-23T22:36:36.476Z,40.72
2023-02-23T22:39:07.422Z,39.33
2023-02-23T22:41:42.501Z,40.80
2023-02-23T22:44:13.489Z,40.58
2023-02-23T22:46:42.330Z,41.00
2023-02-23T22:49:11.837Z,41.67
2023-02-23T22:51:45.681Z,40.90
2023-02-23T22:54:14.410Z,40.30
2023-02-23T22:56:44.776Z,42.72
2023-02-23T22:59:17.826Z,37.83
2023-02-23T23:04:28.569Z,24.35
2023-02-23T23:06:58.397Z,26.40
2023-02-23T23:09:28.355Z,25.67
2023-02-23T23:12:09.142Z,26.08
2023-02-23T23:14:39.557Z,26.30
2023-02-23T23:17:09.832Z,20.58
2023-02-23T23:19:40.533Z,20.13
2023-02-23T23:22:14.383Z,14.80
2023-02-23T23:24:46.219Z,16.00
2023-02-23T23:27:16.438Z,12.50
2023-02-23T23:29:46.832Z,13.05
2023-02-23T23:32:17.228Z,12.25
2023-02-23T23:34:49.718Z,9.82
2023-02-23T23:37:21.513Z,9.02
2023-02-23T23:40:00.344Z,8.40
2023-02-23T23:42:30.042Z,7.88
2023-02-23T23:44:58.167Z,8.77
2023-02-23T23:47:26.847Z,5.70
2023-02-23T23:49:55.916Z,6.80
2023-02-23T23:52:25.316Z,7.22
2023-02-23T23:54:53.437Z,7.05
2023-02-23T23:57:21.695Z,7.00
2023-02-23T23:59:51.349Z,7.88
